Terminal Aerodrome Forecast
Issued by NWS

Home | Current Version | Previous Version | Text Only | Print | Product List | Glossary On
Versions: 1 2 3 4 5 6 7 8 9 10 11 12 13 14
000
FTPQ31 PGUM 311127
TAFGUM
TAF

TAF
PKWA 311127Z 3112/0112 VRB05KT P6SM VCSH FEW016 BKN140
      TEMPO 3112/3114 4SM SHRA SCT015 BKN025=

USA.gov is the U.S. government's official web portal to all federal, state and local government web resources and services.